Palm Beach Gardens, FL

12:05 PM EST on January 18, 2017 (GMT -0500)
Benjamin | | Change Station

Elev 36 ft 26.84 °N, 80.06 °W | Updated 38 seconds ago

Partly Cloudy
Partly Cloudy
79.0 °F
Feels Like 81 °F
N
3.0
Wind Variable Wind from SSW

Today
High -- | Low -- °F
--% Chance of Precip.
Yesterday
High -- | Low -- °F
Precip. -- in
Pressure 30.18 in
Visibility 10.0 miles
Clouds Scattered Clouds 4100 ft
Mostly Cloudy 25000 ft
Heat Index 81 °F
Dew Point 62 °F
Humidity 58%
Rainfall 0.00 in
Snow Depth Not available.
7:10 AM 5:51 PM
Waning Gibbous, 62% visible
METAR KPBI 181653Z 20006KT 10SM SCT041 BKN250 26/14 A3018 RMK AO2 SLP219 T02610144
Pressure 30.18 in
Visibility 10.0 miles
Clouds Scattered Clouds 4100 ft
Mostly Cloudy 25000 ft
Heat Index 81 °F
Dew Point 62 °F
Humidity 58%
Rainfall 0.00 in
Snow Depth Not available.
7:10 AM 5:51 PM
Waning Gibbous, 62% visible
METAR KPBI 181653Z 20006KT 10SM SCT041 BKN250 26/14 A3018 RMK AO2 SLP219 T02610144

Get Your Daily Forecast Email!

Thanks for signing up!

Be on the lookout for a verification email in your inbox.

You'll start receiving the daily forecast at 8 AM.

×

10-Day Weather Forecast

Almanac

Astronomy

Jan. 18, 2017 Rise Set
Actual Time
Civil Twilight
Nautical Twilight
Astronomical Twilight
Moon
Length of Visible Light
Length of Day
Tomorrow will be .
, % of the Moon is Illuminated

Today's Extremes

State Highs State Lows

Community

WunderPhotos

Upload Photos

1,962,540 photos uploaded!

WunderBlog® & News

Nearby

Air Quality

  Air Quality AQ Index Pollutant
Not available.

Snow Depth

Station Depth Elevation

Earthquake Activity

City Distance Mag. Time & Date
Minimum magnitude displayed is 2.5.

Coastal Water Temperatures

Place Temperature

Stations

Nearby Weather Stations

Station Location Temp. Windchill Dew Point Humidity Wind Precip. Elev Updated Type
                   

Watches & Warnings

There are currently no watches in effect.